M I D A S
Marine Information and Data Acquisition System
Tripno 428 of the Zeeleeuw from 2003-02-11 07:32:15 to 2003-02-11 15:22:51
Back to CruiseResearch ActivitiesStationsMapUnderway DataData graphs

EquipmentUnitsComments
TimeDGPSUTC
LatitudeDGPSDM.mWGS84
LongitudeDGPSDM.mWGS84
SpeedMeteo Stationm/sRelative wind speed
DirectionMeteo StationdegRelative wind direction
TemperatureMeteo Stationdeg CelciusAir temperature
PressureMeteo StationPaAtmospheric pressure
HumidityMeteo Station%Relative humidity
Missing or incorrect values are displayed as -999
Metereological data collected by the RV Zeeleeuw from 2003-02-11 07:32:15 to 2003-02-11 15:22:51
                                                                                    Next 1000 lines
Time Latitude Longitude Speed Direction Temperature Pressure Humidity
2003-02-11 07:32:25 51°13.605 2°56.077 2 139 -0.2 102510 92
2003-02-11 07:32:29 51°13.607 2°56.072 1.9 156 -0.2 102510 92
2003-02-11 07:32:34 51°13.609 2°56.065 2.2 134 -0.2 102510 92
2003-02-11 07:32:39 51°13.611 2°56.058 2.6 126 -0.2 102500 92
2003-02-11 07:32:44 51°13.613 2°56.051 2.7 116 -0.2 102500 92
2003-02-11 07:32:49 51°13.616 2°56.043 2.6 133 -0.2 102510 92
2003-02-11 07:32:55 51°13.619 2°56.032 2.2 139 -0.2 102510 92
2003-02-11 07:32:59 51°13.621 2°56.025 2.1 139 -0.2 102510 92
2003-02-11 07:33:05 51°13.624 2°56.014 1.6 132 -0.2 102510 92
2003-02-11 07:33:09 51°13.626 2°56.007 1.5 137 -0.2 102510 92
2003-02-11 07:33:15 51°13.629 2°55.995 1.9 141 -0.2 102510 92
2003-02-11 07:33:19 51°13.631 2°55.988 2.2 174 -0.2 102510 92
2003-02-11 07:33:25 51°13.635 2°55.976 1.4 140 -0.2 102510 92
2003-02-11 07:33:29 51°13.637 2°55.968 2.4 116 -0.2 102510 92
2003-02-11 07:33:35 51°13.641 2°55.956 2 114 -0.2 102510 92
2003-02-11 07:33:39 51°13.644 2°55.948 1.9 117 -0.2 102510 92
2003-02-11 07:33:44 51°13.647 2°55.937 1.9 122 -0.2 102510 92
2003-02-11 07:33:49 51°13.65 2°55.927 1.6 122 -0.2 102510 92
2003-02-11 07:33:54 51°13.654 2°55.916 1 113 -0.2 102510 92
2003-02-11 07:33:59 51°13.657 2°55.906 1.7 119 -0.2 102500 92
2003-02-11 07:34:05 51°13.661 2°55.893 2 118 -0.2 102500 92
2003-02-11 07:34:09 51°13.664 2°55.885 1.8 138 -0.2 102510 92
2003-02-11 07:34:14 51°13.667 2°55.875 1.7 138 -0.2 102510 92
2003-02-11 07:34:19 51°13.67 2°55.864 1.7 160 -0.2 102510 92
2003-02-11 07:34:25 51°13.674 2°55.852 1.8 174 -0.2 102510 92
2003-02-11 07:34:29 51°13.677 2°55.844 1.3 146 -0.2 102510 92
2003-02-11 07:34:35 51°13.68 2°55.832 1 129 -0.2 102510 92
2003-02-11 07:34:39 51°13.683 2°55.823 1.8 88 -0.2 102510 92
2003-02-11 07:34:44 51°13.686 2°55.813 1.5 113 -0.2 102510 92
2003-02-11 07:34:49 51°13.688 2°55.803 1.5 113 -0.2 102510 92
2003-02-11 07:34:54 51°13.691 2°55.793 1.4 124 -0.2 102510 92
2003-02-11 07:34:59 51°13.694 2°55.784 1.1 109 -0.2 102510 92
2003-02-11 07:35:04 51°13.696 2°55.774 1.8 135 -0.2 102510 92
2003-02-11 07:35:09 51°13.698 2°55.765 1.9 132 -0.1 102500 92
2003-02-11 07:35:14 51°13.7 2°55.756 2.3 131 -0.1 102500 92
2003-02-11 07:35:19 51°13.702 2°55.748 2.1 161 -0.1 102510 92
2003-02-11 07:35:24 51°13.704 2°55.741 2.3 137 -0.1 102510 92
2003-02-11 07:35:29 51°13.704 2°55.735 2.4 145 -0.1 102500 92
2003-02-11 07:35:34 51°13.706 2°55.731 2.6 165 -0.1 102500 92
2003-02-11 07:35:39 51°13.706 2°55.729 2.5 174 -0.1 102500 92
2003-02-11 07:35:45 51°13.707 2°55.727 2.6 156 -0.1 102500 92
2003-02-11 07:35:49 51°13.707 2°55.727 3.7 150 -0.1 102500 92
2003-02-11 07:35:54 51°13.709 2°55.728 2.9 157 -0.1 102500 92
2003-02-11 07:35:59 51°13.709 2°55.729 2.7 156 -0.1 102500 92
2003-02-11 07:36:05 51°13.711 2°55.731 2.5 140 -0.1 102500 92
2003-02-11 07:36:09 51°13.712 2°55.733 2.6 133 -0.1 102500 92
2003-02-11 07:36:13 51°13.713 2°55.734 2.8 149 -0.1 102500 92
2003-02-11 07:36:19 51°13.715 2°55.735 2.6 126 -0.1 102500 92
2003-02-11 07:36:25 51°13.716 2°55.736 3.5 128 -0.1 102500 92
2003-02-11 07:36:29 51°13.717 2°55.736 3.8 92 -0.1 102500 92
2003-02-11 07:36:34 51°13.717 2°55.735 3.5 85 -0.1 102500 92
2003-02-11 07:36:38 51°13.717 2°55.734 3.6 78 -0.1 102500 92
2003-02-11 07:36:43 51°13.717 2°55.732 3.2 68 -0.1 102500 92
2003-02-11 07:36:48 51°13.716 2°55.731 3.3 68 -0.1 102500 92
2003-02-11 07:36:52 51°13.716 2°55.729 4 95 -0.1 102500 92
2003-02-11 07:36:59 51°13.714 2°55.726 4.2 91 -0.1 102510 92
2003-02-11 07:37:04 51°13.712 2°55.724 3.6 77 -0.1 102510 92
2003-02-11 07:37:09 51°13.711 2°55.722 3.7 78 -0.1 102510 92
2003-02-11 07:37:15 51°13.71 2°55.72 3.1 82 -0.1 102510 92
2003-02-11 07:37:19 51°13.709 2°55.719 2.9 79 -0.1 102500 92
2003-02-11 07:37:25 51°13.709 2°55.718 2.6 72 -0.1 102500 92
2003-02-11 07:37:29 51°13.709 2°55.717 2.4 46 -0.1 102510 92
2003-02-11 07:37:34 51°13.709 2°55.716 2.3 134 -0.1 102510 92
2003-02-11 07:37:39 51°13.71 2°55.716 1.9 64 -0.1 102510 92
2003-02-11 07:37:45 51°13.711 2°55.716 1.8 59 -0.1 102510 92
2003-02-11 07:37:49 51°13.712 2°55.715 1.5 52 -0.1 102510 92
2003-02-11 07:37:55 51°13.714 2°55.714 1.1 132 -0.1 102510 92
2003-02-11 07:37:59 51°13.716 2°55.713 1.1 48 -0.1 102510 92
2003-02-11 07:38:05 51°13.719 2°55.711 2.1 1 -0.1 102510 92
2003-02-11 07:38:09 51°13.721 2°55.71 1.7 18 -0.1 102510 92
2003-02-11 07:38:15 51°13.724 2°55.707 2.8 321 -0.1 102510 92
2003-02-11 07:38:19 51°13.727 2°55.706 2.3 68 -0.1 102510 92
2003-02-11 07:38:24 51°13.73 2°55.703 2.2 38 -0.1 102510 92
2003-02-11 07:38:29 51°13.734 2°55.7 2.5 33 -0.1 102510 92
2003-02-11 07:38:34 51°13.738 2°55.698 2.5 19 -0.1 102510 92
2003-02-11 07:38:39 51°13.742 2°55.695 2.4 47 -0.1 102510 92
2003-02-11 07:38:44 51°13.747 2°55.692 1.8 44 -0.1 102510 92
2003-02-11 07:38:49 51°13.751 2°55.688 1.1 47 -0.1 102510 92
2003-02-11 07:38:52 51°13.754 2°55.686 1.6 44 -0.1 102510 92
2003-02-11 07:38:59 51°13.761 2°55.681 1.2 35 -0.1 102510 92
2003-02-11 07:39:04 51°13.766 2°55.677 1.7 38 -0.1 102510 92
2003-02-11 07:39:09 51°13.771 2°55.673 2.5 355 -0.1 102510 92
2003-02-11 07:39:14 51°13.777 2°55.669 1.6 8 -0.1 102510 92
2003-02-11 07:39:18 51°13.782 2°55.666 2.2 22   102510 92
2003-02-11 07:39:24 51°13.789 2°55.66 1.3 34   102510 92
2003-02-11 07:39:28 51°13.794 2°55.656 1 41   102510 92
2003-02-11 07:39:34 51°13.803 2°55.651 0.5 31   102510 92
2003-02-11 07:39:39 51°13.81 2°55.646 0.3 31   102510 92
2003-02-11 07:39:44 51°13.817 2°55.641 0.3 32   102510 92
2003-02-11 07:39:49 51°13.824 2°55.636 0.9 31   102510 92
2003-02-11 07:39:53 51°13.83 2°55.631 1 82   102510 92
2003-02-11 07:39:59 51°13.839 2°55.625 0.8 75   102510 92
2003-02-11 07:40:04 51°13.847 2°55.62 1 145   102510 92
2003-02-11 07:40:09 51°13.855 2°55.614 0.8 154   102510 92
2003-02-11 07:40:13 51°13.862 2°55.609 0.6 149   102510 92
2003-02-11 07:40:19 51°13.872 2°55.602 0.3 142   102510 92
2003-02-11 07:40:24 51°13.881 2°55.596 0.2 118   102510 92
2003-02-11 07:40:29 51°13.889 2°55.59 0.1 117   102510 92
2003-02-11 07:40:34 51°13.898 2°55.584 0.1 124   102510 92
2003-02-11 07:40:39 51°13.906 2°55.578 0.2 125   102510 92
2003-02-11 07:40:44 51°13.915 2°55.571 0.2 133   102510 92
2003-02-11 07:40:48 51°13.922 2°55.566 0.3 135   102510 92
2003-02-11 07:40:54 51°13.933 2°55.559 0.4 138   102510 92
2003-02-11 07:40:59 51°13.942 2°55.553 0.6 153   102510 92
2003-02-11 07:41:04 51°13.951 2°55.546 0.5 185   102510 92
2003-02-11 07:41:09 51°13.96 2°55.54 0.5 206 0.1 102520 92
2003-02-11 07:41:13 51°13.968 2°55.535 0.5 183 0.1 102520 92
2003-02-11 07:41:19 51°13.978 2°55.526 0.3 134   102520 92
2003-02-11 07:41:24 51°13.988 2°55.519 0.1 134   102520 92
2003-02-11 07:41:29 51°13.997 2°55.513 0.1 134   102520 92
2003-02-11 07:41:34 51°14.006 2°55.506 0.1 133   102520 92
2003-02-11 07:41:39 51°14.015 2°55.498   127   102510 92
2003-02-11 07:41:44 51°14.025 2°55.491 0.3 92   102510 92
2003-02-11 07:41:49 51°14.034 2°55.484 0.5 83   102520 92
2003-02-11 07:41:53 51°14.042 2°55.478 0.8 113   102520 92
2003-02-11 07:41:58 51°14.051 2°55.47 0.4 104   102520 92
2003-02-11 07:42:04 51°14.062 2°55.461 0.2 101   102520 92
2003-02-11 07:42:08 51°14.07 2°55.455 0.2 101   102520 92
2003-02-11 07:42:13 51°14.08 2°55.448 0.2 101   102520 92
2003-02-11 07:42:19 51°14.092 2°55.439 0.1 100   102520 92
2003-02-11 07:42:25 51°14.104 2°55.43 0.5 83   102520 92
2003-02-11 07:42:29 51°14.112 2°55.424 0.7 78   102520 92
2003-02-11 07:42:33 51°14.12 2°55.418 1.1 108   102520 92
2003-02-11 07:42:39 51°14.132 2°55.409 1.3 110   102520 92
2003-02-11 07:42:44 51°14.142 2°55.401 1.4 99   102520 92
2003-02-11 07:42:49 51°14.151 2°55.393 1.7 98   102510 92
2003-02-11 07:42:54 51°14.161 2°55.385 1.5 88   102510 92
2003-02-11 07:42:59 51°14.171 2°55.376 1.3 86   102510 92
2003-02-11 07:43:05 51°14.183 2°55.365 1 122   102510 92
2003-02-11 07:43:09 51°14.191 2°55.358 1.1 120   102510 91
2003-02-11 07:43:14 51°14.2 2°55.348 0.4 111   102510 91
2003-02-11 07:43:19 51°14.21 2°55.338 0.6 73   102510 92
2003-02-11 07:43:24 51°14.219 2°55.327 0.3 73   102510 92
2003-02-11 07:43:29 51°14.228 2°55.316 0.2 73 0.1 102520 92
2003-02-11 07:43:33 51°14.235 2°55.307 0.4 312 0.1 102520 92
2003-02-11 07:43:39 51°14.246 2°55.292 1.2 310 0.1 102520 92
2003-02-11 07:43:45 51°14.257 2°55.276 1.3 286 0.1 102520 92
2003-02-11 07:43:49 51°14.264 2°55.265 2 283 0.1 102520 92
2003-02-11 07:43:55 51°14.274 2°55.248 2.3 288 0.1 102520 92
2003-02-11 07:43:59 51°14.281 2°55.236 2.5 285 0.1 102510 92
2003-02-11 07:44:04 51°14.289 2°55.221 3 279 0.1 102510 92
2003-02-11 07:44:08 51°14.296 2°55.208 2.7 289 0.1 102510 92
2003-02-11 07:44:12 51°14.303 2°55.196 2.9 305 0.1 102510 92
2003-02-11 07:44:18 51°14.313 2°55.177 2.4 304 0.1 102520 92
2003-02-11 07:44:24 51°14.323 2°55.158 2.7 304 0.1 102520 92
2003-02-11 07:44:29 51°14.332 2°55.142 1.9 305 0.1 102520 92
2003-02-11 07:44:34 51°14.34 2°55.125 2.3 301 0.1 102520 92
2003-02-11 07:44:38 51°14.347 2°55.113 1.1 336 0.1 102520 92
2003-02-11 07:44:42 51°14.354 2°55.1 1.2 261 0.1 102520 92
2003-02-11 07:44:48 51°14.365 2°55.082 1.7 311 0.1 102510 92
2003-02-11 07:44:52 51°14.373 2°55.07 1.6 341 0.1 102510 92
2003-02-11 07:44:58 51°14.385 2°55.052 1.2 5 0.1 102520 92
2003-02-11 07:45:04 51°14.397 2°55.034 0.7 10 0.1 102520 92
2003-02-11 07:45:08 51°14.407 2°55.022 0.4 9 0.1 102520 91
2003-02-11 07:45:12 51°14.416 2°55.01 0.1 9 0.1 102520 91
2003-02-11 07:45:18 51°14.431 2°54.993 0.1 1 0.1 102510 91
2003-02-11 07:45:23 51°14.444 2°54.978 1.2 350 0.1 102510 91
2003-02-11 07:45:28 51°14.457 2°54.964 1.3 282 0.1 102520 91
2003-02-11 07:45:32 51°14.468 2°54.952 1.3 277 0.1 102520 91
2003-02-11 07:45:39 51°14.487 2°54.932 1.4 255 0.1 102510 91
2003-02-11 07:45:43 51°14.499 2°54.92 1.7 253 0.1 102510 91
2003-02-11 07:45:48 51°14.513 2°54.905 1.2 258 0.1 102520 91
2003-02-11 07:45:53 51°14.527 2°54.891 1.3 280 0.1 102520 91
2003-02-11 07:45:59 51°14.544 2°54.873 1.7 282 0.1 102520 91
2003-02-11 07:46:03 51°14.556 2°54.861 1.6 280 0.1 102520 91
2003-02-11 07:46:08 51°14.57 2°54.847 1.8 274 0.1 102510 91
2003-02-11 07:46:13 51°14.585 2°54.832 1.3 271 0.1 102510 91
2003-02-11 07:46:19 51°14.602 2°54.815 1.5 280 0.1 102520 91
2003-02-11 07:46:23 51°14.614 2°54.803 1.2 276 0.1 102520 91
2003-02-11 07:46:27 51°14.626 2°54.791 1.4 280 0.1 102510 91
2003-02-11 07:46:33 51°14.644 2°54.773 1.6 282 0.1 102510 91
2003-02-11 07:46:39 51°14.662 2°54.754 0.9 283 0.1 102520 91
2003-02-11 07:46:43 51°14.674 2°54.742 0.9 296 0.1 102520 91
2003-02-11 07:46:48 51°14.689 2°54.727 0.8 295 0.1 102510 91
2003-02-11 07:46:53 51°14.705 2°54.712 0.9 297 0.1 102510 91
2003-02-11 07:46:57 51°14.717 2°54.699 0.6 295 0.1 102510 91
2003-02-11 07:47:04 51°14.738 2°54.678 1 276 0.1 102510 91
2003-02-11 07:47:08 51°14.75 2°54.666 0.9 281 0.1 102510 91
2003-02-11 07:47:12 51°14.763 2°54.654 1 254 0.1 102510 91
2003-02-11 07:47:19 51°14.784 2°54.633 0.7 253 0.1 102510 91
2003-02-11 07:47:23 51°14.797 2°54.62 0.5 247 0.1 102510 91
2003-02-11 07:47:28 51°14.812 2°54.605 0.3 247 0.1 102520 91
2003-02-11 07:47:32 51°14.824 2°54.593 1.1 249 0.1 102520 91
2003-02-11 07:47:39 51°14.845 2°54.571 1.2 255 0.1 102520 91
2003-02-11 07:47:44 51°14.861 2°54.555 1.1 266 0.1 102520 91
2003-02-11 07:47:48 51°14.873 2°54.543 0.8 261 0.1 102510 91
2003-02-11 07:47:53 51°14.888 2°54.528 1.2 271 0.1 102510 91
2003-02-11 07:47:59 51°14.907 2°54.509 1.3 277 0.1 102510 91
2003-02-11 07:48:04 51°14.922 2°54.493 0.8 259 0.1 102510 91
2003-02-11 07:48:08 51°14.934 2°54.481 0.8 274 0.1 102510 91
2003-02-11 07:48:13 51°14.95 2°54.465 0.8 251 0.1 102510 91
2003-02-11 07:48:18 51°14.965 2°54.449 1.1 250 0.1 102510 91
2003-02-11 07:48:23 51°14.98 2°54.434 1 257 0.1 102510 91
2003-02-11 07:48:28 51°14.996 2°54.418 0.9 264 0.1 102520 91
2003-02-11 07:48:33 51°15.011 2°54.402 0.9 274 0.1 102520 91
2003-02-11 07:48:37 51°15.023 2°54.39 0.8 292 0.1 102510 91
2003-02-11 07:48:43 51°15.042 2°54.371 0.7 296 0.1 102510 91
2003-02-11 07:48:48 51°15.057 2°54.356 0.8 298 0.1 102510 91
2003-02-11 07:48:52 51°15.07 2°54.343 0.4 312 0.1 102510 91
2003-02-11 07:48:58 51°15.088 2°54.324 0.5 299 0.1 102510 91
2003-02-11 07:49:00 51°15.095 2°54.318 0.4 300 0.1 102510 91
2003-02-11 07:49:08 51°15.12 2°54.293 0.3 299 0.1 102510 91
2003-02-11 07:49:13 51°15.136 2°54.278 0.4 252 0.1 102510 91
2003-02-11 07:49:18 51°15.152 2°54.262 0.7 251 0.1 102510 91
2003-02-11 07:49:24 51°15.17 2°54.243 1.1 252 0.1 102510 91
2003-02-11 07:49:28 51°15.183 2°54.231 1.2 239 0.1 102510 91
2003-02-11 07:49:32 51°15.195 2°54.218 1.4 244 0.1 102510 91
2003-02-11 07:49:39 51°15.217 2°54.195 1.9 255 0.2 102520 91
2003-02-11 07:49:43 51°15.229 2°54.183 2.5 262 0.2 102520 91
2003-02-11 07:49:48 51°15.245 2°54.167 2.2 252 0.2 102520 91
2003-02-11 07:49:52 51°15.258 2°54.154 2.8 265 0.2 102520 91
2003-02-11 07:49:58 51°15.277 2°54.135 2.9 265 0.2 102510 91
2003-02-11 07:50:03 51°15.293 2°54.12 2.8 276 0.2 102510 91
2003-02-11 07:50:08 51°15.309 2°54.105 2.7 272 0.2 102510 91
2003-02-11 07:50:13 51°15.324 2°54.089 2.7 267 0.2 102510 91
2003-02-11 07:50:19 51°15.343 2°54.071 2.1 283 0.2 102520 91
2003-02-11 07:50:23 51°15.356 2°54.058 1.9 295 0.2 102520 91
2003-02-11 07:50:28 51°15.372 2°54.043 1.8 293 0.2 102520 92
2003-02-11 07:50:33 51°15.388 2°54.027 1.4 281 0.2 102520 92
2003-02-11 07:50:38 51°15.404 2°54.012 1.4 282 0.3 102510 92
2003-02-11 07:50:44 51°15.422 2°53.993 1.5 275 0.3 102510 92
2003-02-11 07:50:49 51°15.437 2°53.977 1.5 262 0.3 102510 92
2003-02-11 07:50:53 51°15.45 2°53.964 1.9 250 0.3 102510 92
2003-02-11 07:50:58 51°15.465 2°53.947 1.7 252 0.2 102510 92
2003-02-11 07:51:02 51°15.477 2°53.934 1.9 244 0.2 102510 92
2003-02-11 07:51:06 51°15.489 2°53.92 2.3 249 0.3 102510 92
2003-02-11 07:51:13 51°15.51 2°53.897 2.3 263 0.3 102510 92
2003-02-11 07:51:18 51°15.525 2°53.88 2.6 258 0.3 102510 92
2003-02-11 07:51:23 51°15.54 2°53.863 2.5 285 0.3 102510 92
2003-02-11 07:51:29 51°15.558 2°53.842 2.6 286 0.3 102510 92
2003-02-11 07:51:32 51°15.568 2°53.832 2.3 283 0.3 102510 92
2003-02-11 07:51:39 51°15.59 2°53.807 2.3 284 0.3 102510 92
2003-02-11 07:51:43 51°15.602 2°53.793 2.4 280 0.3 102510 92
2003-02-11 07:51:48 51°15.618 2°53.776 2.6 282 0.3 102510 92
2003-02-11 07:51:53 51°15.634 2°53.759 2.4 269 0.3 102510 92
2003-02-11 07:51:58 51°15.65 2°53.742 2.2 283 0.3 102510 92
2003-02-11 07:52:03 51°15.666 2°53.724 1.8 286 0.3 102510 92
2003-02-11 07:52:08 51°15.682 2°53.706 1.7 288 0.3 102510 92
2003-02-11 07:52:12 51°15.695 2°53.692 1.5 278 0.3 102510 92
2003-02-11 07:52:19 51°15.717 2°53.668 1.2 275 0.4 102510 92
2003-02-11 07:52:23 51°15.73 2°53.654 0.9 290 0.4 102510 92
2003-02-11 07:52:28 51°15.746 2°53.636 0.9 273 0.3 102510 92
2003-02-11 07:52:33 51°15.762 2°53.619 1.1 266 0.3 102510 92
2003-02-11 07:52:36 51°15.772 2°53.608 1 267 0.4 102510 92
2003-02-11 07:52:43 51°15.794 2°53.583 1.2 262 0.4 102510 92
2003-02-11 07:52:49 51°15.813 2°53.562 1.2 256 0.3 102510 91
2003-02-11 07:52:53 51°15.826 2°53.548 1.4 267 0.3 102510 91
2003-02-11 07:52:58 51°15.842 2°53.53 1.3 285 0.4 102520 91
2003-02-11 07:53:03 51°15.858 2°53.512 1.3 289 0.4 102520 91
2003-02-11 07:53:08 51°15.873 2°53.494 1.3 267 0.3 102510 91
2003-02-11 07:53:13 51°15.889 2°53.476 1.6 273 0.3 102510 91
2003-02-11 07:53:17 51°15.902 2°53.461 1.7 272 0.3 102510 91
2003-02-11 07:53:23 51°15.921 2°53.44 1.3 260 0.3 102510 91
2003-02-11 07:53:28 51°15.937 2°53.421 1.5 255 0.3 102510 91
2003-02-11 07:53:33 51°15.953 2°53.404 1.8 257 0.3 102510 91
2003-02-11 07:53:37 51°15.965 2°53.389 1.9 280 0.3 102510 91
2003-02-11 07:53:43 51°15.984 2°53.368 2.4 291 0.3 102510 91
2003-02-11 07:53:48 51°16 2°53.35 2.7 284 0.4 102520 91
2003-02-11 07:53:52 51°16.013 2°53.336 2.2 276 0.4 102520 91
2003-02-11 07:53:56 51°16.026 2°53.321 2.2 302 0.4 102510 91
2003-02-11 07:54:04 51°16.051 2°53.292 2.1 284 0.4 102510 91
2003-02-11 07:54:08 51°16.063 2°53.278 2.3 290 0.4 102510 91
2003-02-11 07:54:13 51°16.079 2°53.26 1.9 291 0.4 102510 91
2003-02-11 07:54:18 51°16.095 2°53.242 1.8 302 0.4 102510 91
2003-02-11 07:54:23 51°16.111 2°53.225 1.3 299 0.4 102510 91
2003-02-11 07:54:28 51°16.127 2°53.207 1.5 299 0.4 102510 91
2003-02-11 07:54:33 51°16.143 2°53.189 1.3 315 0.4 102510 91
2003-02-11 07:54:39 51°16.163 2°53.168 1.2 310 0.4 102510 91
2003-02-11 07:54:43 51°16.176 2°53.155 1.8 301 0.4 102510 91
2003-02-11 07:54:48 51°16.192 2°53.138 1.4 290 0.4 102510 91
2003-02-11 07:54:53 51°16.209 2°53.122 1.4 307 0.4 102510 91
2003-02-11 07:54:59 51°16.229 2°53.102 1 310 0.4 102510 91
2003-02-11 07:55:03 51°16.242 2°53.089 0.9 330 0.4 102510 91
2003-02-11 07:55:08 51°16.259 2°53.073 1.2 316 0.4 102510 91
2003-02-11 07:55:13 51°16.275 2°53.056 1 331 0.4 102510 91
2003-02-11 07:55:18 51°16.292 2°53.04 0.6 284 0.4 102510 91
2003-02-11 07:55:22 51°16.305 2°53.027 0.8 264 0.4 102510 91
2003-02-11 07:55:28 51°16.326 2°53.007 0.8 257 0.5 102520 91
2003-02-11 07:55:33 51°16.342 2°52.991 0.7 255 0.5 102520 91
2003-02-11 07:55:39 51°16.362 2°52.971 0.6 260 0.4 102510 91
2003-02-11 07:55:43 51°16.376 2°52.958 1.3 274 0.4 102510 91
2003-02-11 07:55:48 51°16.392 2°52.942 1.9 252 0.4 102510 91
2003-02-11 07:55:53 51°16.409 2°52.926 1.9 275 0.4 102510 91
2003-02-11 07:55:58 51°16.426 2°52.91 1.3 258 0.4 102510 91
2003-02-11 07:56:04 51°16.446 2°52.89 1.4 267 0.4 102510 91
2003-02-11 07:56:08 51°16.459 2°52.877 1.8 305 0.4 102510 91
2003-02-11 07:56:13 51°16.476 2°52.861 0.9 312 0.4 102510 91
2003-02-11 07:56:17 51°16.49 2°52.848 0.6 311 0.4 102510 91
2003-02-11 07:56:24 51°16.513 2°52.825 0.6 308 0.4 102510 91
2003-02-11 07:56:29 51°16.53 2°52.809 0.8 318 0.5 102510 91
2003-02-11 07:56:32 51°16.54 2°52.799 1.1 8 0.5 102510 91
2003-02-11 07:56:39 51°16.563 2°52.777 1 6 0.5 102510 91
2003-02-11 07:56:43 51°16.576 2°52.764 1 9 0.5 102510 91
2003-02-11 07:56:47 51°16.59 2°52.751 0.7 8 0.5 102510 91
2003-02-11 07:56:53 51°16.61 2°52.732 0.6 351 0.5 102510 91
2003-02-11 07:56:58 51°16.627 2°52.715 0.4 349 0.5 102510 91
2003-02-11 07:57:03 51°16.643 2°52.699 0.3 349 0.5 102510 91
2003-02-11 07:57:07 51°16.657 2°52.686 0.2 350 0.5 102510 91
2003-02-11 07:57:13 51°16.677 2°52.667 0.5 349 0.5 102510 91
2003-02-11 07:57:17 51°16.69 2°52.654 0.4 348 0.5 102510 91
2003-02-11 07:57:23 51°16.71 2°52.634 0.3 349 0.5 102510 91
2003-02-11 07:57:28 51°16.727 2°52.618 0.2 350 0.5 102510 91
2003-02-11 07:57:32 51°16.74 2°52.605 0.1 318 0.5 102510 91
2003-02-11 07:57:38 51°16.76 2°52.586 1 302 0.6 102510 91
2003-02-11 07:57:44 51°16.78 2°52.566 0.8 300 0.6 102510 91
2003-02-11 07:57:48 51°16.793 2°52.553 1 285 0.6 102510 91
2003-02-11 07:57:52 51°16.807 2°52.541 0.7 284 0.6 102510 91
2003-02-11 07:57:58 51°16.826 2°52.521 0.8 268 0.6 102510 91
2003-02-11 07:58:03 51°16.843 2°52.506 0.6 279 0.6 102510 91
2003-02-11 07:58:08 51°16.86 2°52.492 0.4 279 0.6 102510 91
2003-02-11 07:58:13 51°16.878 2°52.479 0.3 251 0.6 102510 91
2003-02-11 07:58:18 51°16.897 2°52.467 0.4 221 0.6 102510 91
2003-02-11 07:58:23 51°16.916 2°52.455 1.1 177 0.6 102510 91
2003-02-11 07:58:28 51°16.934 2°52.443 1 193 0.6 102510 91
2003-02-11 07:58:32 51°16.949 2°52.434 0.8 134 0.6 102510 91
2003-02-11 07:58:39 51°16.975 2°52.418 1 132 0.6 102510 91
2003-02-11 07:58:43 51°16.99 2°52.409 1 131 0.6 102510 91
2003-02-11 07:58:48 51°17.009 2°52.399 1.4 102 0.6 102510 91
2003-02-11 07:58:52 51°17.024 2°52.391 1.9 114 0.6 102510 91
2003-02-11 07:58:58 51°17.047 2°52.381 1.9 115 0.6 102510 91
2003-02-11 07:59:03 51°17.066 2°52.372 2.1 111 0.6 102510 91
2003-02-11 07:59:08 51°17.086 2°52.364 1.9 110 0.6 102510 91
2003-02-11 07:59:13 51°17.105 2°52.355 1.5 119 0.6 102510 91
2003-02-11 07:59:19 51°17.129 2°52.346 1.8 116 0.6 102510 91
2003-02-11 07:59:23 51°17.145 2°52.339 1.9 129 0.6 102510 91
2003-02-11 07:59:28 51°17.164 2°52.331 2.4 178 0.6 102510 91
2003-02-11 07:59:33 51°17.184 2°52.323 1.7 137 0.6 102510 91
2003-02-11 07:59:37 51°17.2 2°52.316 1.7 126 0.7 102510 91
2003-02-11 07:59:43 51°17.223 2°52.306 2.4 128 0.7 102510 91
2003-02-11 07:59:48 51°17.243 2°52.298 2.5 129 0.7 102510 91
2003-02-11 07:59:53 51°17.263 2°52.292 2.5 124 0.7 102510 91
2003-02-11 07:59:58 51°17.283 2°52.285 3.1 131 0.7 102510 91
2003-02-11 08:00:04 51°17.307 2°52.279 2.8 131 0.7 102510 91
2003-02-11 08:00:09 51°17.327 2°52.273 3 138 0.7 102510 92
2003-02-11 08:00:12 51°17.339 2°52.271 3.4 133 0.7 102510 92
2003-02-11 08:00:18 51°17.363 2°52.267 3.5 142 0.7 102510 91
2003-02-11 08:00:24 51°17.388 2°52.265 3.5 139 0.7 102510 91
2003-02-11 08:00:28 51°17.404 2°52.263 4 134 0.7 102500 91
2003-02-11 08:00:33 51°17.424 2°52.262 3.1 155 0.7 102500 91
2003-02-11 08:00:38 51°17.445 2°52.26 3.5 152 0.7 102510 91
2003-02-11 08:00:43 51°17.465 2°52.259 3.7 146 0.7 102510 91
2003-02-11 08:00:48 51°17.486 2°52.259 3.7 153 0.7 102510 91
2003-02-11 08:00:53 51°17.507 2°52.259 4.4 153 0.7 102510 91
2003-02-11 08:00:59 51°17.531 2°52.258 4 155 0.7 102510 91
2003-02-11 08:01:03 51°17.548 2°52.258 3.4 154 0.7 102510 91
2003-02-11 08:01:08 51°17.568 2°52.257 3.6 153 0.7 102510 91
2003-02-11 08:01:13 51°17.589 2°52.257 3.3 162 0.7 102510 91
2003-02-11 08:01:17 51°17.606 2°52.256 3.9 166 0.7 102510 91
2003-02-11 08:01:23 51°17.63 2°52.256 4.5 154 0.7 102510 91
2003-02-11 08:01:28 51°17.651 2°52.255 4 153 0.8 102510 91
2003-02-11 08:01:33 51°17.672 2°52.255 4.7 136 0.8 102510 91
2003-02-11 08:01:37 51°17.688 2°52.254 4.7 145 0.8 102510 91
2003-02-11 08:01:43 51°17.713 2°52.254 4.8 149 0.8 102510 91
2003-02-11 08:01:53 51°17.754 2°52.257 5.9 150 0.8 102510 92
2003-02-11 08:01:57 51°17.77 2°52.26 5.6 150 0.8 102510 91
2003-02-11 08:02:03 51°17.794 2°52.265 5.9 148 0.8 102510 91
2003-02-11 08:02:08 51°17.814 2°52.271 5.3 159 0.8 102510 91
2003-02-11 08:02:13 51°17.835 2°52.276 6.1 162 0.8 102510 91
2003-02-11 08:02:19 51°17.859 2°52.284 6.5 151 0.8 102500 91
2003-02-11 08:02:23 51°17.875 2°52.289 6.6 160 0.8 102500 91
2003-02-11 08:02:28 51°17.896 2°52.297 6.5 155 0.8 102500 91
2003-02-11 08:02:32 51°17.912 2°52.304 7.1 156 0.8 102500 91
2003-02-11 08:02:38 51°17.935 2°52.317 7.1 161 0.8 102500 91
2003-02-11 08:02:44 51°17.959 2°52.33 7.6 161 0.8 102500 91
2003-02-11 08:02:48 51°17.974 2°52.34 7.1 169 0.8 102500 91
2003-02-11 08:02:52 51°17.989 2°52.349 7.9 163 0.8 102500 91
2003-02-11 08:02:59 51°18.017 2°52.367 6.9 169 0.8 102500 91
2003-02-11 08:03:03 51°18.032 2°52.377 8 162 0.8 102500 91
2003-02-11 08:03:08 51°18.051 2°52.39 8.3 162 0.8 102500 91
2003-02-11 08:03:13 51°18.07 2°52.402 7.2 161 0.8 102500 91
2003-02-11 08:03:16 51°18.081 2°52.41 7.3 166 0.8 102500 91
2003-02-11 08:03:23 51°18.108 2°52.428 7.1 158 0.8 102500 91
2003-02-11 08:03:27 51°18.123 2°52.438 7.6 172 0.8 102500 91
2003-02-11 08:03:33 51°18.146 2°52.453 8.3 158 0.8 102500 91
2003-02-11 08:03:37 51°18.161 2°52.463 7.1 159 0.8 102500 91
2003-02-11 08:03:43 51°18.185 2°52.478 7.6 157 0.8 102500 91
2003-02-11 08:03:48 51°18.204 2°52.489 7.6 161 0.8 102500 91
2003-02-11 08:03:53 51°18.223 2°52.502 8.7 165 0.8 102500 91
2003-02-11 08:03:58 51°18.242 2°52.516 8.9 164 0.8 102500 91
2003-02-11 08:04:03 51°18.26 2°52.531 8.3 166 0.8 102500 91
2003-02-11 08:04:08 51°18.278 2°52.548 8.3 167 0.8 102500 91
2003-02-11 08:04:13 51°18.296 2°52.565 8.9 169 0.8 102500 91
2003-02-11 08:04:17 51°18.31 2°52.58 9.4 166 0.8 102500 91
2003-02-11 08:04:23 51°18.331 2°52.601 8.9 164 0.8 102500 91
2003-02-11 08:04:27 51°18.344 2°52.616 8.9 177 0.8 102500 91
2003-02-11 08:04:32 51°18.361 2°52.634 10.6 167 0.8 102500 91
2003-02-11 08:04:36 51°18.374 2°52.649 9.9 171 0.8 102500 91
2003-02-11 08:04:44 51°18.401 2°52.68 10 170 0.8 102500 91
2003-02-11 08:04:48 51°18.414 2°52.695 8.5 176 0.8 102500 91
2003-02-11 08:04:53 51°18.431 2°52.714 10.4 163 0.8 102500 91
2003-02-11 08:04:58 51°18.447 2°52.735 9.4 172 0.8 102500 91
2003-02-11 08:05:03 51°18.464 2°52.754 10.4 171 0.8 102500 91
2003-02-11 08:05:08 51°18.48 2°52.775 9.8 166 0.8 102490 91
2003-02-11 08:05:13 51°18.496 2°52.794 10 169 0.8 102490 91
2003-02-11 08:05:19 51°18.516 2°52.818 10.2 168 0.8 102500 91
2003-02-11 08:05:23 51°18.528 2°52.835 10 167 0.8 102500 91
2003-02-11 08:05:28 51°18.545 2°52.855 10.1 166 0.8 102500 91
2003-02-11 08:05:33 51°18.56 2°52.876 8.3 174 0.8 102500 91
2003-02-11 08:05:37 51°18.573 2°52.892 9.7 170 0.8 102500 91
2003-02-11 08:05:47 51°18.606 2°52.933 10.3 177 0.8 102490 91
2003-02-11 08:05:51 51°18.618 2°52.95 10 174 0.8 102490 91
2003-02-11 08:05:56 51°18.635 2°52.97 10.6 168 0.8 102500 91
2003-02-11 08:05:59 51°18.644 2°52.982 9.4 169 0.8 102500 91
2003-02-11 08:06:07 51°18.67 2°53.015 9.7 168 0.8 102500 91
2003-02-11 08:06:08 51°18.674 2°53.019 9.1 169 0.8 102500 91
2003-02-11 08:06:15 51°18.696 2°53.047 8.9 175 0.8 102490 91
2003-02-11 08:06:21 51°18.716 2°53.072 9.7 175 0.8 102490 91
2003-02-11 08:06:25 51°18.729 2°53.088 10.1 167 0.8 102500 91
2003-02-11 08:06:32 51°18.752 2°53.116 10.1 168 0.8 102500 91
2003-02-11 08:06:36 51°18.765 2°53.132 9.2 171 0.8 102500 91
2003-02-11 08:06:40 51°18.779 2°53.148 9 177 0.8 102500 91
2003-02-11 08:06:47 51°18.802 2°53.176 10.1 175 0.8 102500 91
2003-02-11 08:06:50 51°18.811 2°53.189 10.2 176 0.8 102500 91
2003-02-11 08:06:56 51°18.831 2°53.213 9.8 171 0.8 102490 91
2003-02-11 08:07:00 51°18.844 2°53.23 8.1 175 0.8 102490 91
2003-02-11 08:07:06 51°18.863 2°53.255 10.9 172 0.8 102500 91
2003-02-11 08:07:16 51°18.895 2°53.297 10.9 171 0.9 102490 91
2003-02-11 08:07:20 51°18.907 2°53.315 9.9 171 0.9 102490 91
2003-02-11 08:07:25 51°18.923 2°53.336 9.9 171 0.9 102490 91
2003-02-11 08:07:32 51°18.945 2°53.366 9 172 0.9 102490 91
2003-02-11 08:07:36 51°18.958 2°53.383 8.7 178 0.9 102500 91
2003-02-11 08:07:39 51°18.967 2°53.396 9.7 175 0.9 102500 91
2003-02-11 08:07:47 51°18.993 2°53.43 9.1 179 0.9 102490 91
2003-02-11 08:07:51 51°19.006 2°53.447 9.2 180 0.9 102490 91
2003-02-11 08:07:56 51°19.022 2°53.468 10.6 175 0.9 102500 91
2003-02-11 08:08:01 51°19.038 2°53.49 10.1 173 0.9 102500 91
2003-02-11 08:08:05 51°19.051 2°53.507 9.6 177 0.9 102500 91
2003-02-11 08:08:09 51°19.064 2°53.524 9.6 177 0.9 102500 91
2003-02-11 08:08:16 51°19.086 2°53.554 9.9 175 0.9 102490 91
2003-02-11 08:08:20 51°19.098 2°53.571 9.7 179 0.9 102490 91
2003-02-11 08:08:26 51°19.118 2°53.597 10.7 171 0.9 102490 91
2003-02-11 08:08:29 51°19.128 2°53.61 10.8 168 0.9 102490 91
2003-02-11 08:08:37 51°19.153 2°53.644 9.6 173 0.8 102490 91
2003-02-11 08:08:41 51°19.166 2°53.661 9.1 177 0.8 102490 91
2003-02-11 08:08:45 51°19.179 2°53.678 9.9 175 0.9 102490 91
2003-02-11 08:08:52 51°19.202 2°53.707 9.4 176 0.9 102490 91
2003-02-11 08:08:56 51°19.214 2°53.725 8.9 178 0.9 102490 91
2003-02-11 08:08:59 51°19.224 2°53.737 9.1 176 0.9 102490 91
2003-02-11 08:09:07 51°19.25 2°53.771 10.1 180 0.9 102490 91
2003-02-11 08:09:11 51°19.263 2°53.789 4.4 178 0.9 102490 91
2003-02-11 08:09:16 51°19.279 2°53.81 9.7 172 0.9 102500 91
2003-02-11 08:09:19 51°19.288 2°53.822 8.6 178 0.9 102500 91
2003-02-11 08:09:26 51°19.311 2°53.852 8.4 178 0.9 102500 91
2003-02-11 08:09:32 51°19.33 2°53.878 8.3 176 0.9 102500 91
2003-02-11 08:09:36 51°19.343 2°53.895 8.6 180 0.9 102490 91
2003-02-11 08:09:40 51°19.356 2°53.912 9.4 178 0.9 102490 91
2003-02-11 08:09:47 51°19.379 2°53.941 9.8 176 0.9 102500 91
2003-02-11 08:09:50 51°19.388 2°53.954 8.8 176 0.9 102500 91
2003-02-11 08:09:56 51°19.408 2°53.98 9.7 182 0.9 102500 91
2003-02-11 08:10:01 51°19.424 2°54.001 8.7 180 0.9 102500 91
2003-02-11 08:10:05 51°19.437 2°54.017 9.2 176 0.9 102500 91
2003-02-11 08:10:11 51°19.457 2°54.043 8.9 180 0.9 102500 91
2003-02-11 08:10:15 51°19.47 2°54.06 9.5 179 0.9 102500 91
2003-02-11 08:10:20 51°19.486 2°54.081 8.9 179 0.9 102500 91
2003-02-11 08:10:25 51°19.502 2°54.102 9.6 178 0.8 102500 91
2003-02-11 08:10:32 51°19.525 2°54.131 8.4 177 0.8 102500 91
2003-02-11 08:10:36 51°19.538 2°54.148 9 179 0.8 102500 91
2003-02-11 08:10:39 51°19.548 2°54.161 9.2 176 0.8 102500 91
2003-02-11 08:10:45 51°19.567 2°54.186 8.3 177 0.8 102500 91
2003-02-11 08:10:52 51°19.59 2°54.215 9.8 178 0.8 102500 91
2003-02-11 08:10:56 51°19.603 2°54.232 9 176 0.8 102500 91
2003-02-11 08:11:00 51°19.616 2°54.249 9.7 174 0.8 102500 91
2003-02-11 08:11:06 51°19.635 2°54.274 9.2 177 0.8 102500 91
2003-02-11 08:11:11 51°19.651 2°54.295 9.4 177 0.8 102500 91
2003-02-11 08:11:16 51°19.668 2°54.316 10.1 176 0.8 102500 91
2003-02-11 08:11:21 51°19.684 2°54.337 10.6 173 0.8 102500 91
2003-02-11 08:11:26 51°19.7 2°54.358 9.5 172 0.8 102500 91
2003-02-11 08:11:30 51°19.713 2°54.375 10.6 173 0.8 102500 91
2003-02-11 08:11:36 51°19.732 2°54.4 9.7 176 0.8 102500 91
2003-02-11 08:11:41 51°19.749 2°54.421 9.9 174 0.8 102500 91
2003-02-11 08:11:46 51°19.765 2°54.442 9.1 176 0.7 102500 91
2003-02-11 08:11:52 51°19.784 2°54.467 9.4 177 0.7 102500 91
2003-02-11 08:11:57 51°19.8 2°54.488 8.6 177 0.7 102500 91
2003-02-11 08:12:00 51°19.81 2°54.5 9.6 176 0.7 102500 91
2003-02-11 08:12:07 51°19.833 2°54.529 8.6 176 0.8 102500 91
2003-02-11 08:12:10 51°19.842 2°54.542 8.9 176 0.8 102500 91
2003-02-11 08:12:16 51°19.862 2°54.567 10.3 169 0.8 102500 91
2003-02-11 08:12:21 51°19.878 2°54.588 8.2 173 0.8 102500 91
2003-02-11 08:12:25 51°19.891 2°54.604 9.6 169 0.8 102500 91
2003-02-11 08:12:32 51°19.914 2°54.634 8.2 176 0.8 102500 91
2003-02-11 08:12:36 51°19.927 2°54.65 9 170 0.7 102500 91
2003-02-11 08:12:42 51°19.947 2°54.675 8.8 176 0.7 102500 91
2003-02-11 08:12:47 51°19.963 2°54.696 8.4 179 0.7 102500 91
2003-02-11 08:12:51 51°19.976 2°54.713 9.6 176 0.7 102500 91
2003-02-11 08:12:56 51°19.992 2°54.734 9.6 173 0.7 102500 91
2003-02-11 08:13:01 51°20.009 2°54.755 9.6 174 0.7 102500 91
2003-02-11 08:13:07 51°20.028 2°54.78 9 172 0.7 102510 91
2003-02-11 08:13:11 51°20.041 2°54.797 9.3 174 0.7 102510 91
2003-02-11 08:13:16 51°20.058 2°54.818 8.2 179 0.7 102510 91
2003-02-11 08:13:20 51°20.071 2°54.834 9.1 178 0.7 102510 91
2003-02-11 08:13:26 51°20.09 2°54.86 9 170 0.7 102510 91
2003-02-11 08:13:29 51°20.1 2°54.872 9.5 173 0.7 102510 91
2003-02-11 08:13:36 51°20.123 2°54.901 9.3 173 0.7 102500 91
2003-02-11 08:13:41 51°20.14 2°54.921 9.3 171 0.7 102500 91
2003-02-11 08:13:44 51°20.15 2°54.934 9.2 176 0.7 102500 91
2003-02-11 08:13:51 51°20.172 2°54.964 7.8 179 0.7 102500 91
2003-02-11 08:13:56 51°20.189 2°54.984 9.8 171 0.7 102510 91
2003-02-11 08:14:02 51°20.209 2°55.009 9.3 169 0.7 102510 91
2003-02-11 08:14:04 51°20.215 2°55.018 9.2 174 0.7 102510 91
2003-02-11 08:14:10 51°20.235 2°55.043 8.4 177 0.7 102510 91
2003-02-11 08:14:16 51°20.254 2°55.069 10.2 175 0.7 102510 91
2003-02-11 08:14:21 51°20.27 2°55.091 9.8 173 0.7 102510 91
2003-02-11 08:14:27 51°20.289 2°55.117 8.8 177 0.8 102510 91
2003-02-11 08:14:31 51°20.302 2°55.134 8.9 178 0.8 102510 91
2003-02-11 08:14:36 51°20.318 2°55.156 10.2 176 0.8 102500 91
2003-02-11 08:14:40 51°20.33 2°55.174 9.3 173 0.8 102500 91
2003-02-11 08:14:47 51°20.352 2°55.205 9.7 179 0.8 102510 91
2003-02-11 08:14:51 51°20.365 2°55.222 9.9 175 0.8 102510 91
2003-02-11 08:14:56 51°20.381 2°55.244 9.3 177 0.7 102500 91
2003-02-11 08:15:00 51°20.393 2°55.262 9.1 177 0.7 102500 91
2003-02-11 08:15:06 51°20.413 2°55.289 9.4 177 0.7 102510 91
2003-02-11 08:15:08 51°20.419 2°55.297 9.3 180 0.7 102510 91
2003-02-11 08:15:16 51°20.444 2°55.333 8.9 179 0.7 102500 91
2003-02-11 08:15:21 51°20.46 2°55.355 9.9 175 0.7 102500 91
2003-02-11 08:15:25 51°20.473 2°55.372 9.4 177 0.7 102500 91
2003-02-11 08:15:32 51°20.494 2°55.403 9.5 174 0.7 102500 91
2003-02-11 08:15:36 51°20.507 2°55.42 9 176 0.7 102500 91
2003-02-11 08:15:42 51°20.526 2°55.447 8.5 179 0.7 102500 91
2003-02-11 08:15:44 51°20.533 2°55.455 10.3 175 0.7 102500 91
2003-02-11 08:15:51 51°20.555 2°55.486 10.4 175 0.7 102500 91
2003-02-11 08:15:56 51°20.57 2°55.508 9.3 180 0.7 102500 91
2003-02-11 08:16:00 51°20.583 2°55.526 9 178 0.7 102500 91
2003-02-11 08:16:07 51°20.604 2°55.557 8.5 178 0.7 102500 91
2003-02-11 08:16:11 51°20.617 2°55.575 9 178 0.7 102500 91
2003-02-11 08:16:16 51°20.632 2°55.597 9.2 174 0.7 102500 91
2003-02-11 08:16:20 51°20.645 2°55.614 8.6 181 0.7 102500 91
2003-02-11 08:16:27 51°20.667 2°55.645 8.8 181 0.7 102500 91
2003-02-11 08:16:30 51°20.676 2°55.659 9.4 176 0.7 102500 91
2003-02-11 08:16:36 51°20.695 2°55.685 9.5 179 0.7 102510 91
2003-02-11 08:16:40 51°20.708 2°55.702 9.4 178 0.7 102510 91
2003-02-11 08:16:45 51°20.723 2°55.724 9.6 178 0.8 102510 91
2003-02-11 08:16:52 51°20.745 2°55.755 10.3 179 0.8 102510 91
2003-02-11 08:16:56 51°20.758 2°55.772 9.9 178 0.8 102500 91
2003-02-11 08:16:59 51°20.767 2°55.785 9.3 181 0.8 102500 91
2003-02-11 08:17:07 51°20.792 2°55.82 10 175 0.8 102500 91
2003-02-11 08:17:11 51°20.805 2°55.837 10.2 175 0.8 102500 91
2003-02-11 08:17:15 51°20.817 2°55.855 10.8 173 0.8 102500 91
2003-02-11 08:17:19 51°20.83 2°55.872 9.9 170 0.8 102500 91
2003-02-11 08:17:26 51°20.852 2°55.903 10.4 178 0.7 102500 91
2003-02-11 08:17:30 51°20.865 2°55.921 8.9 178 0.7 102500 91
2003-02-11 08:17:36 51°20.883 2°55.947 9.6 176 0.7 102500 91
2003-02-11 08:17:40 51°20.896 2°55.965 8.1 175 0.7 102500 91
2003-02-11 08:17:46 51°20.915 2°55.991 9.8 176 0.7 102500 91
2003-02-11 08:17:49 51°20.924 2°56.004 9.1 176 0.7 102500 91
2003-02-11 08:17:56 51°20.946 2°56.035 9.2 176 0.8 102500 91
2003-02-11 08:18:01 51°20.962 2°56.057 9.3 175 0.8 102500 91
2003-02-11 08:18:05 51°20.974 2°56.075 7.8 181 0.8 102500 91
2003-02-11 08:18:11 51°20.993 2°56.101 9.4 175 0.8 102500 91
2003-02-11 08:18:16 51°21.009 2°56.124 8.9 177 0.7 102510 91
2003-02-11 08:18:20 51°21.021 2°56.142 10.1 173 0.7 102510 91
2003-02-11 08:18:27 51°21.043 2°56.173 9.1 173 0.7 102520 91
2003-02-11 08:18:31 51°21.056 2°56.19 9.3 179 0.7 102520 91
2003-02-11 08:18:36 51°21.071 2°56.213 10 174 0.7 102510 91
2003-02-11 08:18:41 51°21.087 2°56.235 9.2 175 0.7 102510 91
2003-02-11 08:18:45 51°21.1 2°56.253 9 170 0.7 102510 91
2003-02-11 08:18:51 51°21.119 2°56.279 8.5 178 0.7 102510 91
2003-02-11 08:18:56 51°21.135 2°56.301 9.1 179 0.7 102510 91
2003-02-11 08:19:01 51°21.15 2°56.323 10.4 169 0.7 102510 91
2003-02-11 08:19:05 51°21.163 2°56.34 10.6 172 0.8 102510 91
2003-02-11 08:19:10 51°21.179 2°56.362 8.8 166 0.8 102510 91
2003-02-11 08:19:16 51°21.198 2°56.389 7.6 177 0.8 102510 91
2003-02-11 08:19:21 51°21.213 2°56.411 8.9 176 0.8 102510 91
2003-02-11 08:19:26 51°21.229 2°56.433 9.2 171 0.8 102510 91
2003-02-11 08:19:28 51°21.236 2°56.442 9 170 0.8 102510 91
2003-02-11 08:19:36 51°21.261 2°56.477 8.9 176 0.8 102510 91
2003-02-11 08:19:41 51°21.277 2°56.499 8.9 178 0.8 102510 91
2003-02-11 08:19:47 51°21.296 2°56.525 8.8 179 0.7 102510 91
2003-02-11 08:19:52 51°21.311 2°56.548 9.2 177 0.7 102510 91
2003-02-11 08:19:56 51°21.324 2°56.565 8.6 174 0.7 102510 91
2003-02-11 08:20:02 51°21.343 2°56.592 9.1 175 0.7 102510 91
2003-02-11 08:20:04 51°21.349 2°56.6 9.4 172 0.8 102510 91
2003-02-11 08:20:11 51°21.371 2°56.631 8.8 176 0.8 102510 91
2003-02-11 08:20:15 51°21.384 2°56.649 8.2 173 0.7 102510 91
2003-02-11 08:20:20 51°21.399 2°56.672 8.2 179 0.7 102510 91
2003-02-11 08:20:26 51°21.418 2°56.698 8.9 178 0.7 102520 91
2003-02-11 08:20:31 51°21.433 2°56.72 9.5 171 0.7 102520 91
2003-02-11 08:20:36 51°21.449 2°56.743 9.5 173 0.7 102510 91
2003-02-11 08:20:42 51°21.468 2°56.769 9.6 170 0.7 102510 91
2003-02-11 08:20:46 51°21.48 2°56.787 8.7 177 0.8 102520 91
2003-02-11 08:20:50 51°21.493 2°56.805 9.7 176 0.8 102520 91
2003-02-11 08:20:56 51°21.512 2°56.832 8.9 178 0.7 102510 91
2003-02-11 08:20:58 51°21.518 2°56.84 8.6 175 0.7 102510 91
2003-02-11 08:21:06 51°21.543 2°56.875 9.8 175 0.7 102520 91
2003-02-11 08:21:11 51°21.559 2°56.897 9.5 173 0.7 102520 91
2003-02-11 08:21:16 51°21.575 2°56.92 9.2 174 0.8 102520 91
2003-02-11 08:21:21 51°21.59 2°56.942 9.2 173 0.8 102520 91
2003-02-11 08:21:26 51°21.606 2°56.964 7.7 180 0.8 102510 91
2003-02-11 08:21:29 51°21.616 2°56.977 8.8 176 0.8 102510 91
2003-02-11 08:21:37 51°21.641 2°57.013 8.6 179 0.8 102510 91
2003-02-11 08:21:42 51°21.656 2°57.035 9.3 177 0.8 102510 91
2003-02-11 08:21:46 51°21.669 2°57.052 9.1 178 0.8 102510 91
2003-02-11 08:21:50 51°21.681 2°57.07 7.4 179 0.8 102510 91
2003-02-11 08:21:56 51°21.7 2°57.096 9.8 179 0.8 102520 91
2003-02-11 08:22:00 51°21.713 2°57.114 9.8 174 0.8 102520 91
2003-02-11 08:22:05 51°21.729 2°57.136 8.9 173 0.8 102510 91
2003-02-11 08:22:11 51°21.747 2°57.162 8.9 174 0.8 102510 91
2003-02-11 08:22:16 51°21.763 2°57.184 9.6 170 0.8 102520 91
2003-02-11 08:22:20 51°21.775 2°57.202 9.2 173 0.8 102520 91
2003-02-11 08:22:26 51°21.794 2°57.229 7.9 178 0.7 102520 91
2003-02-11 08:22:32 51°21.813 2°57.255 9.8 178 0.7 102520 91
2003-02-11 08:22:36 51°21.825 2°57.273 10 173 0.8 102520 91
2003-02-11 08:22:41 51°21.84 2°57.296 8.8 177 0.8 102520 91
2003-02-11 08:22:47 51°21.859 2°57.323 10 175 0.8 102520 91
2003-02-11 08:22:50 51°21.868 2°57.337 8.5 178 0.8 102520 91
2003-02-11 08:22:56 51°21.885 2°57.365 8.8 178 0.8 102520 91
2003-02-11 08:23:00 51°21.897 2°57.384 8.6 181 0.8 102520 91
2003-02-11 08:23:07 51°21.919 2°57.416 10.1 179 0.7 102520 91
2003-02-11 08:23:12 51°21.934 2°57.44 9.4 179 0.7 102520 91
2003-02-11 08:23:16 51°21.946 2°57.458 8.1 182 0.8 102520 91
2003-02-11 08:23:19 51°21.955 2°57.472 9.3 181 0.8 102520 91
2003-02-11 08:23:27 51°21.978 2°57.51 9.6 178 0.8 102520 91
2003-02-11 08:23:31 51°21.99 2°57.53 9.4 178 0.8 102520 91
2003-02-11 08:23:37 51°22.008 2°57.559 8.4 183 0.8 102520 91
2003-02-11 08:23:40 51°22.017 2°57.573 9.5 177 0.8 102520 91
2003-02-11 08:23:45 51°22.032 2°57.597 9.1 177 0.7 102520 91
2003-02-11 08:23:50 51°22.047 2°57.621 9.1 178 0.7 102520 91
2003-02-11 08:23:56 51°22.064 2°57.65 8.8 179 0.8 102520 91
2003-02-11 08:23:59 51°22.073 2°57.665 10.1 177 0.8 102520 91
2003-02-11 08:24:05 51°22.091 2°57.694 8.9 180 0.8 102510 91
2003-02-11 08:24:12 51°22.111 2°57.728 9.4 179 0.8 102510 91
2003-02-11 08:24:17 51°22.125 2°57.752 9.9 178 0.8 102520 91
2003-02-11 08:24:22 51°22.14 2°57.776 9.9 177 0.8 102520 91
2003-02-11 08:24:26 51°22.152 2°57.795 8.6 181 0.8 102520 91
2003-02-11 08:24:30 51°22.163 2°57.815 8.9 179 0.8 102520 91
2003-02-11 08:24:36 51°22.181 2°57.844 8.5 178 0.8 102520 91
2003-02-11 08:24:41 51°22.196 2°57.869 9.2 177 0.8 102520 91
2003-02-11 08:24:46 51°22.21 2°57.893 9 181 0.7 102520 91
2003-02-11 08:24:51 51°22.225 2°57.917 8.6 182 0.7 102520 91
2003-02-11 08:24:56 51°22.24 2°57.942 8.3 181 0.8 102520 91
2003-02-11 08:25:01 51°22.255 2°57.966 8.8 178 0.8 102520 91
2003-02-11 08:25:05 51°22.266 2°57.986 9.5 180 0.8 102520 91
2003-02-11 08:25:11 51°22.283 2°58.015 8.3 181 0.8 102520 91
2003-02-11 08:25:16 51°22.298 2°58.04 7.7 179 0.8 102520 91
2003-02-11 08:25:21 51°22.313 2°58.064 7.5 185 0.8 102520 91
2003-02-11 08:25:27 51°22.33 2°58.093 8.2 179 0.8 102520 91
2003-02-11 08:25:30 51°22.339 2°58.108 7.6 184 0.8 102520 91
2003-02-11 08:25:36 51°22.357 2°58.137 10.2 178 0.7 102520 91
2003-02-11 08:25:41 51°22.372 2°58.161 8.8 179 0.7 102520 91
2003-02-11 08:25:47 51°22.389 2°58.19 9.3 176 0.7 102520 91
2003-02-11 08:25:50 51°22.398 2°58.205 7.5 181 0.7 102520 91
2003-02-11 08:25:56 51°22.416 2°58.234 9.5 178 0.7 102520 91
2003-02-11 08:26:01 51°22.43 2°58.259 8 180 0.7 102520 91
2003-02-11 08:26:06 51°22.445 2°58.282 10.3 178 0.7 102520 91
2003-02-11 08:26:11 51°22.459 2°58.307 8.8 181 0.7 102520 91
2003-02-11 08:26:16 51°22.474 2°58.331 9 180 0.7 102520 91
2003-02-11 08:26:22 51°22.491 2°58.36 9 178 0.7 102520 91
2003-02-11 08:26:27 51°22.506 2°58.385 9.5 179 0.7 102520 91
2003-02-11 08:26:31 51°22.517 2°58.404 9.2 176 0.7 102520 91
2003-02-11 08:26:36 51°22.532 2°58.429 8.9 178 0.7 102520 91
2003-02-11 08:26:40 51°22.544 2°58.448 9.7 179 0.7 102520 91
2003-02-11 08:26:46 51°22.561 2°58.477 9.2 177 0.7 102520 91
2003-02-11 08:26:52 51°22.579 2°58.506 9.7 179 0.7 102520 91
2003-02-11 08:26:56 51°22.591 2°58.525 10 175 0.7 102520 91
2003-02-11 08:26:59 51°22.599 2°58.541 7.6 182 0.7 102520 91
2003-02-11 08:27:06 51°22.619 2°58.575 9.1 179 0.7 102520 91
2003-02-11 08:27:09 51°22.627 2°58.591 8.5 181 0.7 102520 91
2003-02-11 08:27:16 51°22.646 2°58.627 9.6 178 0.7 102530 91
2003-02-11 08:27:21 51°22.659 2°58.653 9.7 182 0.7 102530 91
2003-02-11 08:27:27 51°22.676 2°58.683 10 177 0.7 102520 91
2003-02-11 08:27:31 51°22.687 2°58.704 9.2 178 0.7 102520 91
2003-02-11 08:27:41 51°22.714 2°58.754 9.4 175 0.7 102520 91
2003-02-11 08:27:47 51°22.731 2°58.785 8.9 181 0.7 102520 91
2003-02-11 08:27:50 51°22.739 2°58.8 9.7 177 0.7 102520 91
2003-02-11 08:27:56 51°22.756 2°58.831 9.5 177 0.7 102500 91
2003-02-11 08:28:00 51°22.767 2°58.851 9.3 179 0.7 102500 91
2003-02-11 08:28:07 51°22.786 2°58.887 9.9 178 0.7 102510 91
2003-02-11 08:28:10 51°22.794 2°58.902 9.9 176 0.7 102510 91
2003-02-11 08:28:16 51°22.811 2°58.933 9.6 179 0.7 102500 91
2003-02-11 08:28:21 51°22.825 2°58.958 8.3 179 0.7 102500 91
2003-02-11 08:28:25 51°22.836 2°58.978 10.7 174 0.7 102510 91
2003-02-11 08:28:32 51°22.855 2°59.014 8.3 178 0.7 102510 91
2003-02-11 08:28:37 51°22.869 2°59.04 9.6 177 0.7 102510 91
2003-02-11 08:28:40 51°22.877 2°59.056 7.8 183 0.7 102510 91
2003-02-11 08:28:47 51°22.896 2°59.091 9.4 179 0.7 102510 91
2003-02-11 08:28:51 51°22.907 2°59.112 8.9 177 0.7 102510 91
2003-02-11 08:28:56 51°22.921 2°59.137 9.2 176 0.7 102510 91
2003-02-11 08:29:00 51°22.932 2°59.158 8.4 179 0.7 102510 91
2003-02-11 08:29:06 51°22.949 2°59.188 8.4 179 0.7 102510 91
2003-02-11 08:29:12 51°22.965 2°59.219 9.1 178 0.7 102510 91
2003-02-11 08:29:16 51°22.976 2°59.239 10 176 0.7 102510 91
2003-02-11 08:29:20 51°22.987 2°59.26 9.1 180 0.7 102510 91
2003-02-11 08:29:27 51°23.007 2°59.295 7.9 180 0.7 102510 91
2003-02-11 08:29:31 51°23.017 2°59.316 9.1 176 0.7 102510 91
2003-02-11 08:29:35 51°23.028 2°59.337 9 175 0.7 102510 91
2003-02-11 08:29:42 51°23.048 2°59.372 8.8 180 0.7 102510 91
2003-02-11 08:29:45 51°23.056 2°59.387 9.4 177 0.7 102510 91
2003-02-11 08:29:51 51°23.073 2°59.418 8.7 189 0.7 102510 91
2003-02-11 08:29:56 51°23.086 2°59.444 9.5 178 0.7 102510 91
2003-02-11 08:30:00 51°23.097 2°59.464 10.2 176 0.7 102510 91
2003-02-11 08:30:07 51°23.117 2°59.5 8.5 179 0.7 102510 91
2003-02-11 08:30:12 51°23.131 2°59.525 9.1 178 0.7 102510 91
2003-02-11 08:30:16 51°23.142 2°59.546 8.8 181 0.7 102520 91
2003-02-11 08:30:20 51°23.152 2°59.566 8.2 181 0.7 102520 91
2003-02-11 08:30:27 51°23.171 2°59.6 8.6 178 0.7 102510 91
2003-02-11 08:30:31 51°23.181 2°59.619 9 174 0.7 102510 91
2003-02-11 08:30:36 51°23.192 2°59.642 9.3 169 0.7 102520 91
2003-02-11 08:30:42 51°23.207 2°59.668 8.9 167 0.7 102520 91
2003-02-11 08:30:46 51°23.216 2°59.685 8 167 0.7 102520 91
2003-02-11 08:30:51 51°23.228 2°59.706 7.5 164 0.7 102520 91
2003-02-11 08:30:57 51°23.243 2°59.728 6.8 161 0.7 102520 91
2003-02-11 08:31:00 51°23.251 2°59.739 6.9 173 0.7 102520 91
2003-02-11 08:31:05 51°23.264 2°59.757 7.7 158 0.7 102520 91
2003-02-11 08:31:12 51°23.282 2°59.78 7.3 154 0.7 102520 91
2003-02-11 08:31:16 51°23.293 2°59.792 6.4 154 0.7 102530 91
2003-02-11 08:31:22 51°23.309 2°59.811 6.2 154 0.7 102530 91
2003-02-11 08:31:27 51°23.322 2°59.827 6.1 154 0.8 102530 91
2003-02-11 08:31:31 51°23.333 2°59.839 6.5 154 0.8 102530 91
2003-02-11 08:31:36 51°23.344 2°59.856 7.6 169 0.7 102530 91
2003-02-11 08:31:40 51°23.352 2°59.87 8.3 175 0.7 102530 91
2003-02-11 08:31:46 51°23.361 2°59.893 9.1 179 0.7 102530 91
2003-02-11 08:31:51 51°23.366 2°59.913 8.5 180 0.7 102530 91
2003-02-11 08:31:56 51°23.369 2°59.932 8.7 191 0.7 102530 91
2003-02-11 08:32:01 51°23.37 2°59.951 9.3 195 0.7 102530 91
2003-02-11 08:32:04 51°23.37 2°59.961 9.1 198 0.7 102530 91
2003-02-11 08:32:08 51°23.37 2°59.974 9.6 201 0.7 102530 91
2003-02-11 08:32:16 51°23.367 2°59.998 8.7 216 0.7 102530 91
2003-02-11 08:32:20 51°23.366 3°0.009 9.8 217 0.7 102530 91
2003-02-11 08:32:26 51°23.362 3°0.023 10 220 0.8 102530 91
2003-02-11 08:32:31 51°23.359 3°0.033 10.4 224 0.8 102530 91
2003-02-11 08:32:37 51°23.355 3°0.044 10.4 227 0.8 102530 91
2003-02-11 08:32:41 51°23.352 3°0.051 10.2 231 0.8 102530 91
2003-02-11 08:32:47 51°23.347 3°0.059 10.1 238 0.8 102530 91
2003-02-11 08:32:50 51°23.344 3°0.063 10.1 244 0.8 102530 91
2003-02-11 08:32:56 51°23.34 3°0.069 10.2 247 0.8 102540 91
2003-02-11 08:33:01 51°23.335 3°0.072 9.9 252 0.8 102540 91
2003-02-11 08:33:06 51°23.331 3°0.075 9.7 254 0.8 102540 91
2003-02-11 08:33:11 51°23.328 3°0.077 10.1 259 0.8 102540 91
2003-02-11 08:33:16 51°23.324 3°0.078 9.7 271 0.7 102540 91
2003-02-11 08:33:21 51°23.32 3°0.078 9.2 271 0.7 102540 91
2003-02-11 08:33:24 51°23.318 3°0.077 9.2 272 0.7 102540 91
2003-02-11 08:33:31 51°23.314 3°0.075 9.6 274 0.7 102540 91
2003-02-11 08:33:36 51°23.311 3°0.072 9.3 279 0.7 102540 91
2003-02-11 08:33:42 51°23.308 3°0.068 9.5 284 0.7 102540 91
2003-02-11 08:33:44 51°23.307 3°0.067 9.4 283 0.8 102540 91
2003-02-11 08:33:52 51°23.303 3°0.061 9 283 0.8 102540 91
2003-02-11 08:33:57 51°23.3 3°0.057 9 283 0.8 102550 91
2003-02-11 08:34:01 51°23.299 3°0.054 8 286 0.8 102550 91
2003-02-11 08:34:05 51°23.297 3°0.051 7.9 281 0.8 102550 91
2003-02-11 08:34:09 51°23.295 3°0.047 7.9 282 0.8 102550 91
2003-02-11 08:34:16 51°23.293 3°0.042 8.6 283 0.8 102550 91
2003-02-11 08:34:20 51°23.291 3°0.039 8.5 288 0.8 102550 91
2003-02-11 08:34:26 51°23.288 3°0.035 8.1 281 0.8 102550 91
2003-02-11 08:34:31 51°23.286 3°0.032 8 285 0.8 102550 91
2003-02-11 08:34:36 51°23.284 3°0.028 9.1 281 0.8 102550 91
2003-02-11 08:34:42 51°23.282 3°0.025 9.6 285 0.8 102550 91
2003-02-11 08:34:46 51°23.28 3°0.023 9.1 284 0.8 102560 91
2003-02-11 08:34:50 51°23.279 3°0.021 8.9 285 0.8 102560 91
2003-02-11 08:34:56 51°23.277 3°0.018 9.4 284 0.8 102560 91
2003-02-11 08:35:01 51°23.275 3°0.015 9.6 282 0.8 102560 91
2003-02-11 08:35:06 51°23.273 3°0.013 9.5 284 0.9 102550 91
2003-02-11 08:35:12 51°23.271 3°0.011 9.4 283 0.9 102550 91
2003-02-11 08:35:16 51°23.27 3°0.01 9.5 283 0.9 102550 91
2003-02-11 08:35:20 51°23.269 3°0.008 9.6 283 0.9 102550 91
2003-02-11 08:35:25 51°23.267 3°0.007 9.1 283 0.9 102550 91
2003-02-11 08:35:32 51°23.265 3°0.005 9.1 280 0.9 102550 91
2003-02-11 08:35:36 51°23.264 3°0.003 8.9 280 0.9 102550 91
2003-02-11 08:35:40 51°23.263 3°0.003 9.4 281 0.9 102550 91
2003-02-11 08:35:46 51°23.262 3°0.001 8.8 281 0.9 102550 91
2003-02-11 08:35:51 51°23.26 2°60 8.7 287 0.9 102550 91
2003-02-11 08:35:56 51°23.259 2°59.999 9.3 282 0.9 102550 91
2003-02-11 08:36:00 51°23.258 2°59.998 8.5 285 0.9 102550 91
2003-02-11 08:36:07 51°23.257 2°59.996 8.9 294 0.8 102550 91
2003-02-11 08:36:10 51°23.256 2°59.996 8.3 291 0.8 102550 91
2003-02-11 08:36:17 51°23.255 2°59.994 8.3 294 0.8 102540 91
2003-02-11 08:36:20 51°23.254 2°59.993 8.3 291 0.8 102540 91
2003-02-11 08:36:25 51°23.254 2°59.992 8.3 293 0.8 102550 91
2003-02-11 08:36:32 51°23.253 2°59.99 8.6 296 0.8 102550 91
2003-02-11 08:36:36 51°23.252 2°59.989 7.8 294 0.9 102550 91
2003-02-11 08:36:39 51°23.252 2°59.988 7.8 294 0.9 102550 91
2003-02-11 08:36:47 51°23.251 2°59.985 9.3 300 0.9 102550 91
2003-02-11 08:36:51 51°23.25 2°59.984 8.1 298 0.9 102550 91
2003-02-11 08:36:56 51°23.25 2°59.982 8.2 300 0.9 102550 91
2003-02-11 08:37:00 51°23.25 2°59.981 8 304 0.9 102550 91
2003-02-11 08:37:07 51°23.249 2°59.979 8.4 304 0.9 102550 91
2003-02-11 08:37:12 51°23.249 2°59.977 8.9 299 0.9 102550 91
2003-02-11 08:37:15 51°23.249 2°59.976 7.4 295 0.9 102550 91
2003-02-11 08:37:22 51°23.249 2°59.973 7.7 299 0.9 102550 91
2003-02-11 08:37:26 51°23.249 2°59.971 6.8 301 0.9 102550 91
2003-02-11 08:37:31 51°23.249 2°59.969 7.3 297 0.9 102550 91
2003-02-11 08:37:36 51°23.249 2°59.967 7.5 301 0.9 102550 91
2003-02-11 08:37:41 51°23.249 2°59.965 8.1 296 0.9 102550 91
2003-02-11 08:37:47 51°23.249 2°59.963 6.3 300 0.9 102550 91
2003-02-11 08:37:52 51°23.249 2°59.961 5.2 297 0.9 102550 91
2003-02-11 08:37:56 51°23.249 2°59.959 5.9 298 1 102550 91
2003-02-11 08:38:01 51°23.249 2°59.957 6.2 297 1 102550 91
2003-02-11 08:38:05 51°23.25 2°59.955 5 295 1 102550 91
2003-02-11 08:38:10 51°23.25 2°59.953 4.3 319 1 102550 91
2003-02-11 08:38:17 51°23.25 2°59.95 6 295 1 102550 91
2003-02-11 08:38:19 51°23.251 2°59.949 4.9 303 1 102550 91
2003-02-11 08:38:25 51°23.251 2°59.946 3.5 306 1 102550 91
2003-02-11 08:38:31 51°23.252 2°59.943 2.9 326 1 102550 91
2003-02-11 08:38:36 51°23.253 2°59.941 3.6 317 1 102550 91
2003-02-11 08:38:40 51°23.253 2°59.939 3.8 315 1 102550 91
2003-02-11 08:38:47 51°23.254 2°59.936 2 317 1 102560 91
2003-02-11 08:38:50 51°23.254 2°59.934 2.1 323 1 102560 91
2003-02-11 08:38:56 51°23.255 2°59.931 2.3 329 1 102550 91
2003-02-11 08:39:01 51°23.256 2°59.929 2.3 321 1 102550 91
2003-02-11 08:39:06 51°23.257 2°59.927 2.1 312 1 102560 91
2003-02-11 08:39:12 51°23.258 2°59.924 2.8 313 1 102560 91
2003-02-11 08:39:16 51°23.258 2°59.922 3 312 1 102550 91
2003-02-11 08:39:20 51°23.259 2°59.92 4.4 309 1 102550 91
2003-02-11 08:39:25 51°23.259 2°59.917 4.6 315 1 102560 91
2003-02-11 08:39:32 51°23.26 2°59.914 5.8 291 1 102560 91
2003-02-11 08:39:36 51°23.261 2°59.912 6.4 298 1 102550 91
2003-02-11 08:39:39 51°23.261 2°59.911 5.3 304 1 102550 91
2003-02-11 08:39:47 51°23.262 2°59.908 4.9 302 1 102550 91
2003-02-11 08:39:52 51°23.263 2°59.906 6.3 301 1 102550 91
2003-02-11 08:39:56 51°23.263 2°59.904 5.6 301 1 102550 91
2003-02-11 08:40:00 51°23.264 2°59.903 5.8 312 1 102550 91
2003-02-11 08:40:07 51°23.264 2°59.9 6.3 300 1 102550 91
2003-02-11 08:40:12 51°23.265 2°59.898 6.6 301 1 102550 91
2003-02-11 08:40:16 51°23.265 2°59.897 8.2 303 0.9 102550 91
2003-02-11 08:40:19 51°23.265 2°59.896 7.1 301 0.9 102550 91
2003-02-11 08:40:27 51°23.266 2°59.894 7.7 301 0.9 102560 91
2003-02-11 08:40:31 51°23.266 2°59.893 8.4 294 0.9 102560 91
2003-02-11 08:40:35 51°23.266 2°59.892 8.8 298 0.9 102550 91
2003-02-11 08:40:39 51°23.266 2°59.891 8.7 297 0.9 102550 91
2003-02-11 08:40:46 51°23.267 2°59.889 8.3 297 0.9 102550 91
2003-02-11 08:40:51 51°23.267 2°59.889 8.5 298 0.9 102550 91
2003-02-11 08:40:57 51°23.267 2°59.887 8.3 293 0.9 102540 91
2003-02-11 08:41:00 51°23.267 2°59.887 8.4 292 0.9 102540 91
2003-02-11 08:41:05 51°23.267 2°59.886 8.7 294 0.9 102550 91
2003-02-11 08:41:09 51°23.268 2°59.885 8.6 295 0.9 102550 91
2003-02-11 08:41:16 51°23.268 2°59.884 8.7 294 1 102540 91
2003-02-11 08:41:20 51°23.268 2°59.884 8.5 292 1 102540 91
2003-02-11 08:41:26 51°23.268 2°59.883 8.2 290 1 102550 91
2003-02-11 08:41:30 51°23.268 2°59.883 8.6 291 1 102550 91
2003-02-11 08:41:36 51°23.269 2°59.882 9.1 292 1 102550 91
2003-02-11 08:41:42 51°23.269 2°59.882 9.1 292 1 102550 91
2003-02-11 08:41:47 51°23.269 2°59.881 8.5 289 1 102550 91
2003-02-11 08:41:50 51°23.269 2°59.881 8.3 287 1 102550 91
2003-02-11 08:41:56 51°23.269 2°59.88 7.6 290 1 102550 91
2003-02-11 08:42:01 51°23.269 2°59.88 8 288 1 102550 91
2003-02-11 08:42:05 51°23.27 2°59.88 7.6 284 0.9 102550 91
2003-02-11 08:42:12 51°23.27 2°59.88 7.8 282 0.9 102550 91
2003-02-11 08:42:16 51°23.27 2°59.88 7.6 280 1 102550 91
2003-02-11 08:42:21 51°23.27 2°59.88 7.8 281 1 102550 91
2003-02-11 08:42:27 51°23.27 2°59.88 8.2 276 1 102550 91
2003-02-11 08:42:31 51°23.27 2°59.88 8.2 278 1 102550 91
2003-02-11 08:42:37 51°23.27 2°59.88 8 282 1 102550 91
2003-02-11 08:42:39 51°23.27 2°59.88 7.2 279 1 102550 91
2003-02-11 08:42:45 51°23.27 2°59.881 8.5 277 1 102540 91
2003-02-11 08:42:51 51°23.27 2°59.881 8.5 281 1 102540 91
2003-02-11 08:42:56 51°23.27 2°59.882 8.4 279 1 102540 91
2003-02-11 08:43:00 51°23.27 2°59.882 8.4 274 1 102540 91
2003-02-11 08:43:06 51°23.271 2°59.882 8 278 1 102550 91
2003-02-11 08:43:11 51°23.271 2°59.883 9.1 272 1 102550 91
2003-02-11 08:43:16 51°23.271 2°59.883 7.5 273 1 102550 91
2003-02-11 08:43:21 51°23.271 2°59.884 7.1 274 1 102550 91
2003-02-11 08:43:25 51°23.271 2°59.885 8.3 271 1 102550 91
2003-02-11 08:43:32 51°23.271 2°59.886 8.4 267 1 102550 91
2003-02-11 08:43:36 51°23.271 2°59.886 8.3 267 1 102540 91
2003-02-11 08:43:42 51°23.271 2°59.887 8 262 1 102540 91
2003-02-11 08:43:47 51°23.271 2°59.888 7.9 352 1.1 102540 91
2003-02-11 08:43:51 51°23.271 2°59.889 8.1 263 1.1 102540 91
2003-02-11 08:43:56 51°23.271 2°59.89 8.4 262 1.1 102540 91
2003-02-11 08:44:00 51°23.272 2°59.89 8.8 258 1.1 102540 91
2003-02-11 08:44:07 51°23.272 2°59.892 8.6 261 1 102530 91
2003-02-11 08:44:12 51°23.272 2°59.893 8.6 260 1 102530 91
2003-02-11 08:44:16 51°23.272 2°59.894 8.2 264 1 102540 91
2003-02-11 08:44:19 51°23.272 2°59.895 8.4 261 1 102540 91
2003-02-11 08:44:27 51°23.272 2°59.897 8 267 1 102530 91
2003-02-11 08:44:31 51°23.272 2°59.898 8.6 262 1 102530 91
2003-02-11 08:44:36 51°23.273 2°59.899 8.2 264 1 102530 91
2003-02-11 08:44:39 51°23.273 2°59.9 8.1 264 1 102530 91
2003-02-11 08:44:46 51°23.273 2°59.902 8.9 260 1.1 102530 91
2003-02-11 08:44:48 51°23.273 2°59.903 8.2 262 1.1 102530 91
2003-02-11 08:44:56 51°23.273 2°59.905 8.5 257 1 102540 91
2003-02-11 08:45:02 51°23.274 2°59.907 8.3 255 1 102540 91
2003-02-11 08:45:06 51°23.274 2°59.908 9.1 252 1 102540 91
2003-02-11 08:45:12 51°23.274 2°59.911 8.3 249 1 102540 91
2003-02-11 08:45:16 51°23.274 2°59.912 8.5 253 1 102540 91
2003-02-11 08:45:19 51°23.274 2°59.913 8.3 250 1 102540 91
2003-02-11 08:45:25 51°23.274 2°59.915 9.1 245 1 102540 91
2003-02-11 08:45:31 51°23.275 2°59.918 8.6 249 1 102540 91
2003-02-11 08:45:36 51°23.275 2°59.919 7.6 250 1 102540 90
2003-02-11 08:45:40 51°23.275 2°59.921 8.1 248 1 102540 90
2003-02-11 08:45:47 51°23.276 2°59.924 7.3 252 1 102540 90
2003-02-11 08:45:50 51°23.276 2°59.925 8.1 249 1 102540 90
2003-02-11 08:45:56 51°23.277 2°59.928 7.9 243 1 102540 90
2003-02-11 08:46:00 51°23.277 2°59.929 8.1 243 1 102540 90
2003-02-11 08:46:05 51°23.277 2°59.931 8 241 1 102550 90
2003-02-11 08:46:12 51°23.278 2°59.935 8.2 238 1 102550 90
2003-02-11 08:46:16 51°23.279 2°59.936 8.9 240 1 102540 91
2003-02-11 08:46:26 51°23.28 2°59.942 8.2 239 1 102540 91
2003-02-11 08:46:32 51°23.28 2°59.944 8.3 239 1 102540 91
2003-02-11 08:46:36 51°23.281 2°59.946 8.8 237 1 102540 91
2003-02-11 08:46:39 51°23.281 2°59.948 8.3 237 1 102540 91
2003-02-11 08:46:47 51°23.282 2°59.952 8.7 235 1 102540 91
2003-02-11 08:46:50 51°23.283 2°59.954 8.8 235 1 102540 91
2003-02-11 08:46:56 51°23.283 2°59.957 8.4 229 1 102550 90
2003-02-11 08:47:00 51°23.284 2°59.959 8.6 229 1 102550 90
2003-02-11 08:47:05 51°23.285 2°59.962 8.3 221 1 102550 90
2003-02-11 08:47:12 51°23.286 2°59.966 8.2 217 1 102550 90
2003-02-11 08:47:16 51°23.286 2°59.969 8 217 1 102540 90
2003-02-11 08:47:21 51°23.287 2°59.972 8.1 220 1 102540 90
2003-02-11 08:47:27 51°23.288 2°59.976 7.3 212 1 102550 90
2003-02-11 08:47:32 51°23.289 2°59.979 8 213 1 102550 90
2003-02-11 08:47:36 51°23.29 2°59.982 7.8 216 1 102540 90
2003-02-11 08:47:40 51°23.291 2°59.984 7.5 217 1 102540 90
2003-02-11 08:47:46 51°23.292 2°59.989 8 217 1 102550 90
2003-02-11 08:47:51 51°23.293 2°59.992 8.1 223 1 102550 90
2003-02-11 08:47:56 51°23.294 2°59.996 7.5 219 1 102550 90
2003-02-11 08:48:01 51°23.295 2°59.999 8.6 224 1 102550 90
2003-02-11 08:48:05 51°23.296 3°0.002 8.4 227 1 102540 90
2003-02-11 08:48:10 51°23.297 3°0.005 7.5 219 1 102540 90
2003-02-11 08:48:16 51°23.298 3°0.009 7.5 224 1 102540 91
2003-02-11 08:48:20 51°23.299 3°0.012 7.3 223 1 102540 91
2003-02-11 08:48:27 51°23.3 3°0.016 7.9 225 1 102540 91
2003-02-11 08:48:31 51°23.301 3°0.019 7.4 234 1 102540 91
2003-02-11 08:48:36 51°23.302 3°0.022 8.2 228 1.1 102540 91
2003-02-11 08:48:42 51°23.303 3°0.026 8.3 230 1.1 102540 91
2003-02-11 08:48:47 51°23.304 3°0.03 8.2 229 1.1 102550 91
2003-02-11 08:48:51 51°23.304 3°0.032 7.7 232 1.1 102550 91
2003-02-11 08:48:56 51°23.305 3°0.035 8.1 235 1.1 102550 91
2003-02-11 08:49:02 51°23.306 3°0.039 8.6 237 1.1 102550 91
2003-02-11 08:49:07 51°23.307 3°0.042 8.3 241 1.1 102540 91
2003-02-11 08:49:11 51°23.307 3°0.044 8.5 241 1.1 102540 91
2003-02-11 08:49:16 51°23.308 3°0.047 8.8 243 1.1 102540 91
2003-02-11 08:49:20 51°23.308 3°0.049 7.8 243 1.1 102540 91
2003-02-11 08:49:27 51°23.309 3°0.053 8.1 245 1 102540 90
2003-02-11 08:49:32 51°23.31 3°0.055 7.7 247 1 102540 90
2003-02-11 08:49:37 51°23.31 3°0.058 7.9 247 1 102540 90
2003-02-11 08:49:42 51°23.31 3°0.06 7.9 250 1 102540 90
2003-02-11 08:49:47 51°23.311 3°0.063 7.7 251 1 102540 90
2003-02-11 08:49:52 51°23.311 3°0.065 8.5 259 1 102540 90
2003-02-11 08:49:56 51°23.312 3°0.066 8.7 254 1.1 102540 90
2003-02-11 08:49:59 51°23.312 3°0.068 8.1 264 1.1 102540 90
2003-02-11 08:50:07 51°23.313 3°0.071 9.1 266 1.1 102540 90
2003-02-11 08:50:12 51°23.313 3°0.072 8.2 268 1.1 102540 90
2003-02-11 08:50:16 51°23.313 3°0.074 8.6 275 1 102540 90
2003-02-11 08:50:20 51°23.314 3°0.075 8.8 277 1 102540 90
2003-02-11 08:50:27 51°23.314 3°0.077 8.6 277 1.1 102540 90
2003-02-11 08:50:32 51°23.315 3°0.078 9 277 1.1 102540 90
2003-02-11 08:50:36 51°23.315 3°0.08 8.4 282 1.1 102540 91
2003-02-11 08:50:42 51°23.315 3°0.081 9.2 284 1.1 102540 91
2003-02-11 08:50:46 51°23.315 3°0.082 9 283 1.1 102540 91
2003-02-11 08:50:56 51°23.316 3°0.083 8.7 286 1.1 102550 91
2003-02-11 08:51:01 51°23.316 3°0.084 8.2 288 1.1 102550 91
2003-02-11 08:51:07 51°23.316 3°0.085 8.4 288 1.1 102550 91
2003-02-11 08:51:12 51°23.316 3°0.086 8.4 284 1.1 102550 91
2003-02-11 08:51:16 51°23.317 3°0.086 8.3 285 1.1 102550 90
2003-02-11 08:51:21 51°23.317 3°0.086 8.2 286 1.1 102550 90
2003-02-11 08:51:26 51°23.317 3°0.087 9 281 1.1 102540 90
2003-02-11 08:51:32 51°23.317 3°0.087 8.9 284 1.1 102540 90
2003-02-11 08:51:36 51°23.317 3°0.088 9.2 285 1.1 102550 90
2003-02-11 08:51:42 51°23.318 3°0.088 8.4 287 1.1 102550 90
2003-02-11 08:51:47 51°23.318 3°0.088 9 286 1.1 102550 90
2003-02-11 08:51:50 51°23.318 3°0.088 8.9 287 1.1 102550 90
2003-02-11 08:51:56 51°23.318 3°0.089 9.5 285 1.1 102550 90
2003-02-11 08:52:01 51°23.318 3°0.089 9 285 1.1 102550 90
2003-02-11 08:52:05 51°23.318 3°0.089 9.1 285 1.1 102550 90
2003-02-11 08:52:12 51°23.318 3°0.089 8.5 286 1.1 102550 90
2003-02-11 08:52:16 51°23.318 3°0.089 8.7 284 1 102550 90
2003-02-11 08:52:20 51°23.318 3°0.089 9 286 1 102550 90
2003-02-11 08:52:27 51°23.318 3°0.089 9.3 285 1 102540 90
2003-02-11 08:52:32 51°23.318 3°0.089 8.9 286 1 102540 90
2003-02-11 08:52:36 51°23.318 3°0.089 8.4 282 1 102550 90
2003-02-11 08:52:41 51°23.318 3°0.089 8.5 283 1 102550 90
2003-02-11 08:52:45 51°23.318 3°0.089 8.4 280 1 102550 90
2003-02-11 08:52:48 51°23.318 3°0.089 8.6 280 1 102550 90
2003-02-11 08:52:56 51°23.317 3°0.089 8.7 282 1 102550 90
2003-02-11 08:53:02 51°23.317 3°0.09 9 279 1 102550 90
2003-02-11 08:53:07 51°23.317 3°0.089 8.9 282 1 102550 90
2003-02-11 08:53:10 51°23.317 3°0.089 8.9 279 1 102550 90
2003-02-11 08:53:16 51°23.317 3°0.089 8.6 281 1 102550 90
2003-02-11 08:53:21 51°23.316 3°0.089 8.5 280 1 102550 90
2003-02-11 08:53:25 51°23.316 3°0.089 8.8 276 1.1 102550 90
2003-02-11 08:53:32 51°23.316 3°0.089 9 278 1.1 102550 90
2003-02-11 08:53:36 51°23.315 3°0.089 8.3 283 1.1 102550 90
2003-02-11 08:53:42 51°23.315 3°0.089 8 278 1.1 102550 90
2003-02-11 08:53:47 51°23.315 3°0.089 8 284 1.1 102550 90
2003-02-11 08:53:52 51°23.314 3°0.09 7.8 283 1.1 102550 90
2003-02-11 08:53:56 51°23.314 3°0.09 8.5 284 1.1 102550 90
2003-02-11 08:54:00 51°23.314 3°0.09 8.7 280 1.1 102550 90
2003-02-11 08:54:07 51°23.313 3°0.09 8.9 276 1.1 102540 90
2003-02-11 08:54:12 51°23.312 3°0.09 9.2 279 1.1 102540 90
2003-02-11 08:54:16 51°23.312 3°0.091 9.2 272 1.1 102540 91
2003-02-11 08:54:19 51°23.312 3°0.091 9.4 276 1.1 102540 91
2003-02-11 08:54:27 51°23.311 3°0.092 9 272 1.2 102550 91
2003-02-11 08:54:31 51°23.31 3°0.092 8.1 273 1.2 102550 91
2003-02-11 08:54:36 51°23.31 3°0.092 8.6 276 1.2 102550 91
2003-02-11 08:54:42 51°23.309 3°0.093 8.5 270 1.2 102550 91
2003-02-11 08:54:47 51°23.309 3°0.093 8.8 268 1.2 102540 91
2003-02-11 08:54:50 51°23.309 3°0.093 9.2 268 1.2 102540 91
2003-02-11 08:54:56 51°23.308 3°0.094 8.5 274 1.2 102550 90
2003-02-11 08:55:01 51°23.307 3°0.095 8.2 278 1.2 102550 90
2003-02-11 08:55:05 51°23.307 3°0.095 7.7 282 1.2 102540 90
2003-02-11 08:55:09 51°23.307 3°0.095 9.2 278 1.2 102540 90
2003-02-11 08:55:16 51°23.306 3°0.096 8.8 279 1.2 102540 90
2003-02-11 08:55:22 51°23.305 3°0.096 9 281 1.2 102540 90
2003-02-11 08:55:25 51°23.304 3°0.097 9.1 279 1.2 102540 90
2003-02-11 08:55:31 51°23.304 3°0.097 9.2 281 1.2 102540 90
2003-02-11 08:55:36 51°23.303 3°0.097 8.3 283 1.2 102550 90
2003-02-11 08:55:42 51°23.302 3°0.097 8.9 283 1.2 102550 90
2003-02-11 08:55:45 51°23.302 3°0.097 9.4 279 1.2 102550 90
2003-02-11 08:55:49 51°23.301 3°0.098 9.2 283 1.2 102550 90
2003-02-11 08:55:56 51°23.301 3°0.097 8.6 283 1.2 102550 90
2003-02-11 08:56:01 51°23.3 3°0.097 8.7 285 1.2 102550 90